createdAt,value
2023-04-01T00:00:00.932Z,70.81
2023-04-01T00:03:03.502Z,71.18
2023-04-01T00:06:06.346Z,71.54
2023-04-01T00:09:08.818Z,70.87
2023-04-01T00:12:12.699Z,70.26
2023-04-01T00:15:15.527Z,70.06
2023-04-01T00:18:18.217Z,70.02
2023-04-01T00:21:21.554Z,69.89
2023-04-01T00:24:24.544Z,69.65
2023-04-01T00:27:28.546Z,70.10
2023-04-01T00:30:31.041Z,70.31
2023-04-01T00:33:33.762Z,71.03
2023-04-01T00:36:36.273Z,70.75
2023-04-01T00:39:39.600Z,70.65
2023-04-01T00:42:43.482Z,70.71
2023-04-01T00:45:47.049Z,70.59
2023-04-01T00:48:51.360Z,70.45
2023-04-01T00:51:56.409Z,69.45
2023-04-01T00:55:02.131Z,71.23
2023-04-01T00:58:09.576Z,71.16
2023-04-01T01:01:12.348Z,70.64
2023-04-01T01:04:24.215Z,70.09
2023-04-01T01:07:31.982Z,71.10
2023-04-01T01:10:36.194Z,71.05
2023-04-01T01:13:45.836Z,73.24
2023-04-01T01:16:53.845Z,73.41
2023-04-01T01:20:25.843Z,73.32
2023-04-01T01:23:46.772Z,73.09
2023-04-01T01:26:55.022Z,72.52
2023-04-01T01:30:19.881Z,72.15
2023-04-01T01:33:46.345Z,72.20
2023-04-01T01:36:52.997Z,72.47
2023-04-01T01:39:57.927Z,71.36
2023-04-01T01:43:02.389Z,72.08
2023-04-01T01:46:09.938Z,71.97
2023-04-01T01:49:13.372Z,73.16
2023-04-01T01:52:19.303Z,73.65
2023-04-01T01:55:31.025Z,74.51
2023-04-01T01:58:35.819Z,75.33
2023-04-01T02:01:41.485Z,76.09
2023-04-01T02:04:45.998Z,75.84
2023-04-01T02:07:54.909Z,75.84
2023-04-01T02:10:59.922Z,75.39
2023-04-01T02:14:05.277Z,75.08
2023-04-01T02:17:09.501Z,74.38
2023-04-01T02:20:15.916Z,73.93
2023-04-01T02:23:20.180Z,73.93
2023-04-01T02:26:23.207Z,73.85
2023-04-01T02:29:27.231Z,73.73
2023-04-01T02:32:30.586Z,73.23
2023-04-01T02:35:35.154Z,72.58
2023-04-01T02:38:39.255Z,72.82
2023-04-01T02:41:42.268Z,72.58
2023-04-01T02:44:44.789Z,72.14
2023-04-01T02:47:47.486Z,72.63
2023-04-01T02:50:50.298Z,72.34
2023-04-01T02:53:54.237Z,72.33
2023-04-01T02:56:57.252Z,72.23
2023-04-01T02:59:59.914Z,72.29
2023-04-01T03:03:03.718Z,71.76
2023-04-01T03:06:07.876Z,71.97
2023-04-01T03:09:11.695Z,71.70
2023-04-01T03:12:14.672Z,71.64
2023-04-01T03:15:17.494Z,71.49
2023-04-01T03:18:20.021Z,71.46
2023-04-01T03:21:24.613Z,71.28
2023-04-01T03:24:28.455Z,71.82
2023-04-01T03:27:31.083Z,72.64
2023-04-01T03:30:34.609Z,72.38
2023-04-01T03:33:37.360Z,71.51
2023-04-01T03:36:40.023Z,71.35
2023-04-01T03:39:44.640Z,70.84
2023-04-01T03:42:48.374Z,70.38
2023-04-01T03:45:52.435Z,69.94
2023-04-01T03:48:55.020Z,69.33
2023-04-01T03:51:57.529Z,68.58
2023-04-01T03:55:02.936Z,69.46
2023-04-01T03:58:05.825Z,69.37
2023-04-01T04:01:15.976Z,69.64
2023-04-01T04:04:18.639Z,69.63
2023-04-01T04:07:21.358Z,69.02
2023-04-01T04:10:25.996Z,69.38
2023-04-01T04:13:28.742Z,69.50
2023-04-01T04:16:31.358Z,69.17
2023-04-01T04:19:35.355Z,69.21
2023-04-01T04:22:38.072Z,68.57
2023-04-01T04:25:42.074Z,68.91
2023-04-01T04:28:44.725Z,69.41
2023-04-01T04:31:47.268Z,69.47
2023-04-01T04:34:49.861Z,69.48
2023-04-01T04:37:52.380Z,70.05
2023-04-01T04:40:56.366Z,70.55
2023-04-01T04:43:59.583Z,70.33
2023-04-01T04:47:02.814Z,70.58
2023-04-01T04:50:06.290Z,70.72
2023-04-01T04:53:08.858Z,70.75
2023-04-01T04:56:12.868Z,71.16
2023-04-01T04:59:15.588Z,71.15
2023-04-01T05:02:18.668Z,71.32
2023-04-01T05:05:21.391Z,71.02
2023-04-01T05:08:23.981Z,71.44
2023-04-01T05:11:28.283Z,72.38
2023-04-01T05:14:30.825Z,71.07
2023-04-01T05:17:33.518Z,71.62
2023-04-01T05:20:36.021Z,71.04
2023-04-01T05:23:39.083Z,70.79
2023-04-01T05:26:42.947Z,70.26
2023-04-01T05:29:45.470Z,70.38
2023-04-01T05:32:48.204Z,70.50
2023-04-01T05:35:50.850Z,69.63
2023-04-01T05:38:56.860Z,69.52
2023-04-01T05:42:00.840Z,69.10
2023-04-01T05:45:03.447Z,68.36
2023-04-01T05:48:06.958Z,67.54
2023-04-01T05:51:14.346Z,67.57
2023-04-01T05:54:16.804Z,67.09
2023-04-01T05:57:20.654Z,66.38
2023-04-01T06:00:23.299Z,65.91
2023-04-01T06:03:25.962Z,65.43
2023-04-01T06:06:30.905Z,65.45
2023-04-01T06:09:33.364Z,64.93
2023-04-01T06:12:45.278Z,64.11
2023-04-01T06:15:54.309Z,64.03
2023-04-01T06:19:06.714Z,63.14
2023-04-01T06:22:34.102Z,62.13
2023-04-01T06:25:45.005Z,61.51
2023-04-01T06:29:28.210Z,62.29
2023-04-01T06:32:58.195Z,61.54
2023-04-01T06:36:24.082Z,62.27
2023-04-01T06:39:42.495Z,59.82
2023-04-01T06:42:53.935Z,60.08
2023-04-01T06:46:04.033Z,59.05
2023-04-01T06:49:19.705Z,59.01
2023-04-01T06:52:25.841Z,60.10
2023-04-01T06:55:34.278Z,60.91
2023-04-01T06:58:39.778Z,60.15
2023-04-01T07:01:47.587Z,59.45
2023-04-01T07:04:53.231Z,59.19
2023-04-01T07:07:57.771Z,59.50
2023-04-01T07:11:05.254Z,58.86
2023-04-01T07:14:14.258Z,59.38
2023-04-01T07:17:20.913Z,59.21
2023-04-01T07:20:27.275Z,59.99
2023-04-01T07:23:33.584Z,59.80
2023-04-01T07:26:36.202Z,61.16
2023-04-01T07:29:39.062Z,60.64
2023-04-01T07:32:45.075Z,59.97
2023-04-01T07:35:52.131Z,59.89
2023-04-01T07:39:01.502Z,60.59
2023-04-01T07:42:10.108Z,60.40
2023-04-01T07:45:18.582Z,59.96
2023-04-01T07:48:28.586Z,59.78
2023-04-01T07:51:34.355Z,59.22
2023-04-01T07:54:42.505Z,59.99
2023-04-01T07:57:51.095Z,59.34
2023-04-01T08:00:58.340Z,58.63
2023-04-01T08:04:24.586Z,58.71
2023-04-01T08:07:29.465Z,58.22
2023-04-01T08:10:35.462Z,57.39
2023-04-01T08:13:43.149Z,57.99
2023-04-01T08:16:49.131Z,58.54
2023-04-01T08:20:01.992Z,57.08
2023-04-01T08:23:09.735Z,57.05
2023-04-01T08:26:15.445Z,57.75
2023-04-01T08:29:22.013Z,58.42
2023-04-01T08:32:28.547Z,58.06
2023-04-01T08:35:38.447Z,58.37
2023-04-01T08:38:44.265Z,58.69
2023-04-01T08:42:11.735Z,61.70
2023-04-01T08:45:35.089Z,62.66
2023-04-01T08:48:47.582Z,64.44
2023-04-01T08:52:04.191Z,68.45
2023-04-01T08:55:30.989Z,70.83
2023-04-01T08:59:10.896Z,71.64
2023-04-01T09:02:32.683Z,71.94
2023-04-01T09:05:43.132Z,70.85
2023-04-01T09:08:59.724Z,70.80
2023-04-01T09:12:22.983Z,68.05
2023-04-01T09:15:44.765Z,66.65
2023-04-01T09:19:11.090Z,63.67
2023-04-01T09:22:39.880Z,62.96
2023-04-01T09:25:55.956Z,61.09
2023-04-01T09:29:05.295Z,60.05
2023-04-01T09:32:45.256Z,59.53
2023-04-01T09:35:48.926Z,56.88
2023-04-01T09:38:57.605Z,58.00
2023-04-01T09:42:09.848Z,61.59
2023-04-01T09:45:22.832Z,63.14
2023-04-01T09:48:41.005Z,62.10
2023-04-01T09:51:53.357Z,62.02
2023-04-01T09:55:05.868Z,62.78
2023-04-01T09:58:43.851Z,61.60
2023-04-01T10:02:19.740Z,63.61
2023-04-01T10:05:42.776Z,60.44
2023-04-01T10:09:14.412Z,60.36
2023-04-01T10:12:35.374Z,58.75
2023-04-01T10:16:13.764Z,57.24
2023-04-01T10:19:45.585Z,55.90
2023-04-01T10:23:30.209Z,54.69
2023-04-01T10:27:06.575Z,52.61
2023-04-01T10:30:39.902Z,52.56
2023-04-01T10:34:15.931Z,52.85
2023-04-01T10:37:29.877Z,52.93
2023-04-01T10:40:42.380Z,55.19
2023-04-01T10:44:04.036Z,54.13
2023-04-01T10:47:41.753Z,53.73
2023-04-01T10:51:20.291Z,53.00
2023-04-01T10:54:43.959Z,53.37
2023-04-01T10:58:03.311Z,54.41
2023-04-01T11:01:22.304Z,55.49
2023-04-01T11:04:59.454Z,55.02
2023-04-01T11:08:36.610Z,57.96
2023-04-01T11:12:12.025Z,56.84
2023-04-01T11:15:33.078Z,53.85
2023-04-01T11:19:07.728Z,50.61
2023-04-01T11:22:25.918Z,50.37
2023-04-01T11:25:53.161Z,48.92
2023-04-01T11:29:11.068Z,48.69
2023-04-01T11:32:25.584Z,48.33
2023-04-01T11:35:38.862Z,48.81
2023-04-01T11:39:00.033Z,46.99
2023-04-01T11:42:13.207Z,46.07
2023-04-01T11:45:34.225Z,47.04
2023-04-01T11:48:53.799Z,46.96
2023-04-01T11:52:07.093Z,47.49
2023-04-01T11:55:25.990Z,47.58
2023-04-01T11:59:10.556Z,49.21
2023-04-01T12:02:16.696Z,50.83
2023-04-01T12:05:27.535Z,52.09
2023-04-01T12:08:41.171Z,51.40
2023-04-01T12:11:49.415Z,52.19
2023-04-01T12:15:00.388Z,53.54
2023-04-01T12:18:11.496Z,53.41
2023-04-01T12:21:22.564Z,54.62
2023-04-01T12:24:36.246Z,55.03
2023-04-01T12:27:44.583Z,56.68
2023-04-01T12:30:53.294Z,56.10
2023-04-01T12:34:19.984Z,55.58
2023-04-01T12:37:26.844Z,54.88
2023-04-01T12:40:41.275Z,54.19
2023-04-01T12:44:07.831Z,51.26
2023-04-01T12:47:51.792Z,48.33
2023-04-01T12:51:22.698Z,47.89
2023-04-01T12:54:51.200Z,46.22
2023-04-01T12:58:05.840Z,44.80
2023-04-01T13:01:27.570Z,43.80
2023-04-01T13:04:50.900Z,44.86
2023-04-01T13:08:04.611Z,46.21
2023-04-01T13:11:11.860Z,44.79
2023-04-01T13:14:43.440Z,47.85
2023-04-01T13:17:49.907Z,48.55
2023-04-01T13:21:00.722Z,49.54
2023-04-01T13:24:08.765Z,49.01
2023-04-01T13:27:18.651Z,48.63
2023-04-01T13:30:27.694Z,47.64
2023-04-01T13:33:37.740Z,46.72
2023-04-01T13:36:51.930Z,46.64
2023-04-01T13:40:03.777Z,46.44
2023-04-01T13:43:12.360Z,47.23
2023-04-01T13:46:29.252Z,47.64
2023-04-01T13:49:44.061Z,47.00
2023-04-01T13:53:04.997Z,47.28
2023-04-01T13:56:17.674Z,47.92
2023-04-01T13:59:44.674Z,45.13
2023-04-01T14:02:55.862Z,46.92
2023-04-01T14:06:11.661Z,46.88
2023-04-01T14:09:28.958Z,46.56
2023-04-01T14:12:34.180Z,46.18
2023-04-01T14:16:00.842Z,47.63
2023-04-01T14:19:20.678Z,48.28
2023-04-01T14:22:30.247Z,49.16
2023-04-01T14:25:43.921Z,50.48
2023-04-01T14:28:50.695Z,50.34
2023-04-01T14:32:02.103Z,52.18
2023-04-01T14:35:27.836Z,52.33
2023-04-01T14:38:40.437Z,51.83
2023-04-01T14:41:50.356Z,52.86
2023-04-01T14:44:59.913Z,54.86
2023-04-01T14:48:08.618Z,55.37
2023-04-01T14:51:17.529Z,56.31
2023-04-01T14:54:23.817Z,55.53
2023-04-01T14:57:30.515Z,51.93
2023-04-01T15:00:47.264Z,50.87
2023-04-01T15:03:56.849Z,51.59
2023-04-01T15:07:07.580Z,50.07
2023-04-01T15:10:20.680Z,48.97
2023-04-01T15:13:39.417Z,49.67
2023-04-01T15:16:50.163Z,50.70
2023-04-01T15:20:03.284Z,50.49
2023-04-01T15:23:17.953Z,50.50
2023-04-01T15:26:27.889Z,51.52
2023-04-01T15:29:53.835Z,50.86
2023-04-01T15:33:15.484Z,51.48
2023-04-01T15:36:28.994Z,52.21
2023-04-01T15:39:42.900Z,52.22
2023-04-01T15:42:54.685Z,52.55
2023-04-01T15:46:01.412Z,53.46
2023-04-01T15:49:12.767Z,53.13
2023-04-01T15:52:19.192Z,53.65
2023-04-01T15:55:27.151Z,54.18
2023-04-01T15:58:49.114Z,54.43
2023-04-01T16:02:00.819Z,53.86
2023-04-01T16:05:06.723Z,54.71
2023-04-01T16:08:21.457Z,54.21
2023-04-01T16:11:28.513Z,53.90
2023-04-01T16:14:38.894Z,53.44
2023-04-01T16:18:03.534Z,53.03
2023-04-01T16:21:10.196Z,53.80
2023-04-01T16:24:19.992Z,53.67
2023-04-01T16:27:28.367Z,54.36
2023-04-01T16:30:38.221Z,53.92
2023-04-01T16:33:49.178Z,53.43
2023-04-01T16:36:53.973Z,54.24
2023-04-01T16:40:04.711Z,54.55
2023-04-01T16:43:13.989Z,54.17
2023-04-01T16:46:37.946Z,55.33
2023-04-01T16:49:47.220Z,54.25
2023-04-01T16:53:00.718Z,54.52
2023-04-01T16:56:11.147Z,54.57
2023-04-01T16:59:20.784Z,55.16
2023-04-01T17:02:26.998Z,55.74
2023-04-01T17:05:42.878Z,55.32
2023-04-01T17:09:14.895Z,55.49
2023-04-01T17:12:22.835Z,55.85
2023-04-01T17:15:32.783Z,55.17
2023-04-01T17:18:42.024Z,55.24
2023-04-01T17:22:02.531Z,55.14
2023-04-01T17:25:36.486Z,55.95
2023-04-01T17:28:49.111Z,56.50
2023-04-01T17:31:57.433Z,56.20
2023-04-01T17:35:07.515Z,56.84
2023-04-01T17:38:19.698Z,57.04
2023-04-01T17:41:30.833Z,56.71
2023-04-01T17:44:45.981Z,56.77
2023-04-01T17:48:06.154Z,56.81
2023-04-01T17:51:21.368Z,56.78
2023-04-01T17:54:31.007Z,57.38
2023-04-01T17:57:45.591Z,57.44
2023-04-01T18:01:04.619Z,57.59
2023-04-01T18:04:20.907Z,59.08
2023-04-01T18:07:39.231Z,59.14
2023-04-01T18:11:00.954Z,60.03
2023-04-01T18:14:44.115Z,61.46
2023-04-01T18:17:58.418Z,63.78
2023-04-01T18:21:07.228Z,65.55
2023-04-01T18:24:17.358Z,67.48
2023-04-01T18:27:24.821Z,68.55
2023-04-01T18:30:30.789Z,68.41
2023-04-01T18:33:38.519Z,67.91
2023-04-01T18:36:46.545Z,68.75
2023-04-01T18:39:52.077Z,68.06
2023-04-01T18:43:07.064Z,67.60
2023-04-01T18:46:15.454Z,65.71
2023-04-01T18:49:23.632Z,64.83
2023-04-01T18:52:29.688Z,63.98
2023-04-01T18:55:38.365Z,63.42
2023-04-01T18:58:49.083Z,63.95
2023-04-01T19:01:59.382Z,64.41
2023-04-01T19:05:04.934Z,64.11
2023-04-01T19:08:22.126Z,63.93
2023-04-01T19:11:29.136Z,64.85
2023-04-01T19:14:47.057Z,64.94
2023-04-01T19:17:56.641Z,65.15
2023-04-01T19:21:02.154Z,65.03
2023-04-01T19:24:34.658Z,65.32
2023-04-01T19:27:43.526Z,65.76
2023-04-01T19:30:55.622Z,65.94
2023-04-01T19:34:09.298Z,66.30
2023-04-01T19:37:19.442Z,66.57
2023-04-01T19:40:35.705Z,66.56
2023-04-01T19:43:46.735Z,66.10
2023-04-01T19:46:52.649Z,65.97
2023-04-01T19:50:02.373Z,66.07
2023-04-01T19:53:15.821Z,66.15
2023-04-01T19:56:19.576Z,66.43
2023-04-01T19:59:24.920Z,66.71
2023-04-01T20:02:46.614Z,66.41
2023-04-01T20:05:59.290Z,65.65
2023-04-01T20:09:12.598Z,65.09
2023-04-01T20:12:23.765Z,64.92
2023-04-01T20:15:33.706Z,64.58
2023-04-01T20:18:41.945Z,64.23
2023-04-01T20:21:45.460Z,63.88
2023-04-01T20:24:48.733Z,63.68
2023-04-01T20:27:53.908Z,63.38
2023-04-01T20:31:06.020Z,63.56
2023-04-01T20:34:33.132Z,63.42
2023-04-01T20:37:41.761Z,63.06
2023-04-01T20:40:47.595Z,63.32
2023-04-01T20:44:13.965Z,63.65
2023-04-01T20:47:23.261Z,62.70
2023-04-01T20:50:31.553Z,62.63
2023-04-01T20:53:39.569Z,62.42
2023-04-01T20:56:54.585Z,63.14
2023-04-01T21:00:16.962Z,62.61
2023-04-01T21:03:35.388Z,63.58
2023-04-01T21:07:01.426Z,64.16
2023-04-01T21:10:22.442Z,64.29
2023-04-01T21:13:35.308Z,63.88
2023-04-01T21:16:46.577Z,63.92
2023-04-01T21:20:00.372Z,64.32
2023-04-01T21:23:16.191Z,64.73
2023-04-01T21:26:30.327Z,64.80
2023-04-01T21:29:44.912Z,65.21
2023-04-01T21:32:58.223Z,64.84
2023-04-01T21:36:07.789Z,65.15
2023-04-01T21:39:25.005Z,64.75
2023-04-01T21:42:38.238Z,64.87
2023-04-01T21:45:52.884Z,65.16
2023-04-01T21:49:09.093Z,65.02
2023-04-01T21:52:30.370Z,65.14
2023-04-01T21:55:58.961Z,65.41
2023-04-01T21:59:38.040Z,64.69
2023-04-01T22:02:53.777Z,65.40
2023-04-01T22:06:01.218Z,64.89
2023-04-01T22:09:13.237Z,65.23
2023-04-01T22:12:20.046Z,65.25
2023-04-01T22:15:30.598Z,65.21
2023-04-01T22:18:39.007Z,65.24
2023-04-01T22:21:52.787Z,64.96
2023-04-01T22:25:05.031Z,64.24
2023-04-01T22:28:14.057Z,64.07
2023-04-01T22:31:19.363Z,63.73
2023-04-01T22:34:25.196Z,63.82
2023-04-01T22:37:36.644Z,63.10
2023-04-01T22:40:43.802Z,63.07
2023-04-01T22:43:47.808Z,62.88
2023-04-01T22:46:58.214Z,62.85
2023-04-01T22:50:04.961Z,62.73
2023-04-01T22:53:18.987Z,62.71
2023-04-01T22:56:24.048Z,62.75
2023-04-01T22:59:33.830Z,62.74
2023-04-01T23:02:39.497Z,63.06
2023-04-01T23:05:46.937Z,63.35
2023-04-01T23:08:59.332Z,63.59
2023-04-01T23:12:04.830Z,63.33
2023-04-01T23:15:14.307Z,63.39
2023-04-01T23:18:23.054Z,63.81
2023-04-01T23:21:28.820Z,63.87
2023-04-01T23:24:36.109Z,63.63
2023-04-01T23:27:42.729Z,63.86
2023-04-01T23:30:52.359Z,63.62
2023-04-01T23:33:56.074Z,64.01
2023-04-01T23:36:59.358Z,63.85
2023-04-01T23:40:03.024Z,64.05
2023-04-01T23:43:12.284Z,63.81
2023-04-01T23:46:16.201Z,64.02
2023-04-01T23:49:21.930Z,64.33
2023-04-01T23:52:25.833Z,64.18
2023-04-01T23:55:30.267Z,64.65
2023-04-01T23:58:43.130Z,64.63
